Time;durP1;ratioP1;P1;durP2;ratioP2;P2;SDS_P1;SDS_P2;PMS_P1;PMS_P2;Temp;Humidity;BMP_temperature;BMP_pressure;BME280_temperature;BME280_humidity;BME280_pressure;Samples;Min_cycle;Max_cycle;Signal;HPM_P1;HPM_P2
2022/09/04 00:02:10;;;;;;;10.20;7.00;;;18.50;99.90;;;;;;5030352;28;20064;-68
2022/09/04 00:05:21;;;;;;;14.70;9.35;;;18.50;99.90;;;;;;5030002;28;20052;-68
2022/09/04 00:08:47;;;;;;;16.92;8.05;;;18.60;99.90;;;;;;5030583;28;20053;-67
2022/09/04 00:16:00;;;;;;;11.75;7.57;;;18.60;99.90;;;;;;5030215;28;20131;-68
2022/09/04 00:19:05;;;;;;;14.77;8.60;;;18.60;99.90;;;;;;5030399;28;20399;-67
2022/09/04 00:23:17;;;;;;;11.52;7.72;;;18.60;99.90;;;;;;5029658;28;20384;-67
2022/09/04 00:26:59;;;;;;;11.85;9.63;;;18.50;99.90;;;;;;5018205;28;20064;-68
2022/09/04 00:30:10;;;;;;;15.40;9.55;;;18.40;99.90;;;;;;5018053;28;20134;-68
2022/09/04 00:33:25;;;;;;;9.80;7.88;;;18.40;99.90;;;;;;5028705;28;20048;-67
2022/09/04 00:36:30;;;;;;;11.23;7.43;;;18.30;99.90;;;;;;5029895;28;20045;-68
2022/09/04 00:40:04;;;;;;;12.85;7.93;;;18.30;99.90;;;;;;5029956;28;20040;-68
2022/09/04 00:43:45;;;;;;;14.82;8.77;;;18.20;99.90;;;;;;5029235;28;20068;-68
2022/09/04 00:47:37;;;;;;;10.15;8.13;;;18.10;99.90;;;;;;5030674;28;20049;-68
2022/09/04 00:51:19;;;;;;;14.25;9.90;;;18.00;99.90;;;;;;5033457;28;20515;-68
2022/09/04 00:55:16;;;;;;;11.73;8.60;;;17.90;99.90;;;;;;5032703;28;20060;-68
2022/09/04 00:58:40;;;;;;;19.33;11.90;;;17.80;99.90;;;;;;5033618;28;20060;-68
2022/09/04 01:01:46;;;;;;;16.27;11.82;;;17.60;99.90;;;;;;5033308;28;20048;-68
2022/09/04 01:08:54;;;;;;;13.52;9.75;;;17.70;99.90;;;;;;5033112;28;20052;-68
2022/09/04 01:12:26;;;;;;;14.27;10.35;;;17.70;99.90;;;;;;5032863;28;20044;-68
2022/09/04 01:15:37;;;;;;;16.10;10.02;;;17.70;99.90;;;;;;5032516;28;20048;-66
2022/09/04 01:18:56;;;;;;;13.43;9.73;;;17.60;99.90;;;;;;5033072;28;20351;-67
2022/09/04 01:22:20;;;;;;;15.25;9.98;;;17.60;99.90;;;;;;5032879;28;20602;-67
2022/09/04 01:25:56;;;;;;;14.15;9.55;;;17.50;99.90;;;;;;5032255;28;20068;-68
2022/09/04 01:29:34;;;;;;;12.98;9.25;;;17.50;99.90;;;;;;5029671;28;20053;-68
2022/09/04 01:33:06;;;;;;;12.48;8.18;;;17.60;99.90;;;;;;5032936;28;20052;-68
2022/09/04 01:36:40;;;;;;;11.70;7.30;;;17.60;99.90;;;;;;5032765;28;20052;-68
2022/09/04 01:39:58;;;;;;;14.35;6.50;;;17.60;99.90;;;;;;5032768;28;20203;-67
2022/09/04 01:43:22;;;;;;;11.52;5.22;;;17.60;99.90;;;;;;5032568;28;20337;-68
2022/09/04 01:50:31;;;;;;;11.18;4.85;;;17.80;99.90;;;;;;5032476;28;20044;-68
2022/09/04 01:53:38;;;;;;;13.75;4.65;;;17.80;99.90;;;;;;5031570;28;20131;-67
2022/09/04 01:57:19;;;;;;;5.97;4.72;;;17.80;99.90;;;;;;5032107;28;20057;-68
2022/09/04 02:00:24;;;;;;;8.88;4.55;;;17.80;99.90;;;;;;5018665;28;20065;-68
2022/09/04 02:04:11;;;;;;;9.48;4.38;;;17.80;99.90;;;;;;5031701;28;20487;-67
2022/09/04 02:07:21;;;;;;;5.85;4.43;;;17.70;99.90;;;;;;5031972;28;20061;-67
2022/09/04 02:14:39;;;;;;;8.68;5.30;;;17.60;99.90;;;;;;5031839;28;20064;-67
2022/09/04 02:18:02;;;;;;;10.20;5.07;;;17.60;99.90;;;;;;5032340;28;20056;-68
2022/09/04 02:21:34;;;;;;;8.82;5.40;;;17.50;99.90;;;;;;5032113;28;20045;-68
2022/09/04 02:24:47;;;;;;;12.93;7.37;;;17.40;99.90;;;;;;5031205;28;20049;-69
2022/09/04 02:28:17;;;;;;;13.18;6.95;;;17.30;99.90;;;;;;5031674;28;20052;-68
2022/09/04 02:31:39;;;;;;;96.90;12.07;;;17.20;99.90;;;;;;5031759;28;20044;-68
2022/09/04 02:35:23;;;;;;;96.72;14.50;;;17.10;99.90;;;;;;5031507;28;20052;-68
2022/09/04 02:38:29;;;;;;;23.13;11.27;;;17.10;99.90;;;;;;5031212;28;20049;-68
2022/09/04 02:41:49;;;;;;;14.57;9.02;;;17.10;99.90;;;;;;5031413;28;20040;-68
2022/09/04 02:45:20;;;;;;;40.05;10.15;;;17.10;99.90;;;;;;5030825;28;20048;-68
2022/09/04 02:48:46;;;;;;;14.55;8.10;;;17.10;99.90;;;;;;5031275;28;20385;-69
2022/09/04 02:52:32;;;;;;;9.57;6.75;;;17.10;99.90;;;;;;5031165;28;20044;-68
2022/09/04 02:55:54;;;;;;;13.55;8.25;;;17.00;99.90;;;;;;5031206;28;20060;-68
2022/09/04 02:59:10;;;;;;;66.68;12.88;;;17.00;99.90;;;;;;5030374;28;20041;-69
2022/09/04 03:02:26;;;;;;;83.85;11.13;;;16.70;99.90;;;;;;5030826;28;20040;-67
2022/09/04 03:05:33;;;;;;;13.90;9.30;;;16.60;99.90;;;;;;5030753;28;20080;-68
2022/09/04 03:08:45;;;;;;;10.75;8.77;;;16.60;99.90;;;;;;5031239;28;20432;-68
2022/09/04 03:12:10;;;;;;;10.63;7.38;;;16.50;99.90;;;;;;5031077;28;20044;-68
2022/09/04 03:15:51;;;;;;;10.90;7.57;;;16.60;99.90;;;;;;5030470;28;20052;-67
2022/09/04 03:19:34;;;;;;;9.50;7.18;;;16.60;99.90;;;;;;5030860;28;20072;-68
2022/09/04 03:23:01;;;;;;;10.80;7.43;;;16.50;99.90;;;;;;5030782;28;20040;-68
2022/09/04 03:26:28;;;;;;;10.93;8.00;;;16.50;99.90;;;;;;5030831;28;20060;-68
2022/09/04 03:29:51;;;;;;;11.10;7.25;;;16.60;99.90;;;;;;5030568;28;20388;-68
2022/09/04 03:36:42;;;;;;;9.30;6.22;;;16.70;99.90;;;;;;5030686;28;19921;-68
2022/09/04 03:40:00;;;;;;;15.00;7.55;;;16.80;99.90;;;;;;5030564;28;20587;-68
2022/09/04 03:43:57;;;;;;;14.05;7.75;;;16.80;99.90;;;;;;5029919;28;20337;-68
2022/09/04 03:47:30;;;;;;;13.98;7.13;;;16.90;99.90;;;;;;5030521;28;20061;-69
2022/09/04 03:50:58;;;;;;;11.88;7.43;;;16.90;99.90;;;;;;5030562;28;20032;-69
2022/09/04 03:54:27;;;;;;;13.73;7.78;;;16.80;99.90;;;;;;5029482;28;20044;-68
2022/09/04 03:57:47;;;;;;;10.93;7.40;;;16.60;99.90;;;;;;5030502;28;20041;-69
2022/09/04 04:00:57;;;;;;;10.52;7.35;;;16.50;99.90;;;;;;5029043;28;20041;-69
2022/09/04 04:04:56;;;;;;;15.88;10.40;;;16.50;99.90;;;;;;5029624;28;20048;-69
2022/09/04 04:08:17;;;;;;;11.77;8.20;;;16.60;99.90;;;;;;5008846;28;20579;-68
2022/09/04 04:11:26;;;;;;;12.88;8.98;;;16.70;99.90;;;;;;5030312;28;20049;-69
2022/09/04 04:14:55;;;;;;;11.65;9.52;;;16.70;99.90;;;;;;5029632;28;20041;-68
2022/09/04 04:18:30;;;;;;;12.35;8.75;;;16.70;99.90;;;;;;5030022;28;20041;-69
2022/09/04 04:21:54;;;;;;;15.05;8.52;;;16.70;99.90;;;;;;5031959;28;20040;-68
2022/09/04 04:25:10;;;;;;;11.73;7.60;;;16.70;99.90;;;;;;5034062;28;20045;-68
2022/09/04 04:28:42;;;;;;;13.30;8.88;;;16.60;99.90;;;;;;5034819;28;20060;-68
2022/09/04 04:32:09;;;;;;;17.13;9.95;;;16.60;99.90;;;;;;5033477;28;20044;-69
2022/09/04 04:35:33;;;;;;;15.10;9.02;;;16.60;99.90;;;;;;5034217;28;20052;-69
2022/09/04 04:38:59;;;;;;;15.07;9.23;;;16.60;99.90;;;;;;5034186;28;20041;-68
2022/09/04 04:42:41;;;;;;;17.65;12.45;;;16.60;99.90;;;;;;5033256;28;20048;-68
2022/09/04 04:45:57;;;;;;;19.75;11.30;;;16.50;99.90;;;;;;5034369;28;20037;-68
2022/09/04 04:49:06;;;;;;;24.48;10.70;;;16.50;99.90;;;;;;5032226;28;20044;-68
2022/09/04 04:52:47;;;;;;;18.27;9.90;;;16.50;99.90;;;;;;5033112;28;20052;-68
2022/09/04 04:59:43;;;;;;;162.43;14.70;;;16.30;99.90;;;;;;5033582;28;20049;-68
2022/09/04 05:03:31;;;;;;;296.70;17.75;;;16.20;99.90;;;;;;5033202;28;20037;-68
2022/09/04 05:06:40;;;;;;;47.53;10.70;;;16.10;99.90;;;;;;5033190;28;20048;-68
2022/09/04 05:10:13;;;;;;;162.50;12.70;;;16.10;99.90;;;;;;5033134;28;20049;-67
2022/09/04 05:13:35;;;;;;;;;;;16.20;99.90;;;;;;5033117;28;20409;-68
2022/09/04 05:17:17;;;;;;;37.88;11.23;;;16.30;99.90;;;;;;5032981;28;20320;-68
2022/09/04 05:21:08;;;;;;;25.50;9.43;;;16.40;99.90;;;;;;5032992;28;20044;-68
2022/09/04 05:24:22;;;;;;;14.65;9.95;;;16.60;99.90;;;;;;5032725;28;20048;-68
2022/09/04 05:27:47;;;;;;;13.90;9.57;;;16.70;99.90;;;;;;5032720;28;20052;-68
2022/09/04 05:31:19;;;;;;;12.75;7.15;;;17.30;99.90;;;;;;5032985;28;20068;-68
2022/09/04 05:34:56;;;;;;;6.15;4.72;;;20.00;99.90;;;;;;5031109;28;20045;-68
2022/09/04 05:38:20;;;;;;;10.10;4.35;;;23.00;99.90;;;;;;5032595;28;20121;-69
2022/09/04 05:41:42;;;;;;;6.30;3.72;;;25.30;99.90;;;;;;5032760;28;20064;-68
2022/09/04 05:44:55;;;;;;;6.57;3.28;;;27.10;99.90;;;;;;5032108;28;20048;-68
2022/09/04 05:48:54;;;;;;;2.85;2.42;;;28.40;99.90;;;;;;5031957;28;20048;-68
2022/09/04 05:52:21;;;;;;;4.32;2.50;;;29.50;99.90;;;;;;4994080;28;20041;-68
2022/09/04 05:55:44;;;;;;;4.32;2.90;;;30.00;99.90;;;;;;5031400;28;20117;-68
2022/09/04 05:59:01;;;;;;;6.93;2.70;;;29.10;99.90;;;;;;5032185;28;20037;-69
2022/09/04 06:02:10;;;;;;;6.15;2.30;;;27.60;99.90;;;;;;5031975;28;20491;-69
2022/09/04 06:05:36;;;;;;;7.10;2.30;;;28.40;99.90;;;;;;5032020;28;20044;-68
2022/09/04 06:09:12;;;;;;;5.35;2.75;;;28.30;99.90;;;;;;5032029;28;20057;-68
2022/09/04 06:12:39;;;;;;;6.90;2.80;;;27.70;99.90;;;;;;5031976;28;20048;-68
2022/09/04 06:15:52;;;;;;;6.75;2.50;;;26.70;99.90;;;;;;5032132;28;20052;-68
2022/09/04 06:19:17;;;;;;;5.13;2.92;;;26.10;99.90;;;;;;5031568;28;20404;-68
2022/09/04 06:22:47;;;;;;;7.20;2.92;;;25.90;99.90;;;;;;5032050;28;20044;-68
2022/09/04 06:26:00;;;;;;;4.75;2.67;;;25.70;99.90;;;;;;5031908;28;20049;-68
2022/09/04 06:29:10;;;;;;;5.20;3.03;;;25.40;99.90;;;;;;5031780;28;20060;-68
2022/09/04 06:32:28;;;;;;;6.55;3.15;;;24.90;99.90;;;;;;5031191;28;20064;-68
2022/09/04 06:36:03;;;;;;;5.57;3.03;;;24.40;99.90;;;;;;5030426;28;20040;-68
2022/09/04 06:39:32;;;;;;;5.47;3.10;;;24.50;99.90;;;;;;5031459;28;20389;-68
2022/09/04 06:42:49;;;;;;;5.65;2.80;;;23.50;99.90;;;;;;5031167;28;20036;-69
2022/09/04 06:46:37;;;;;;;10.65;3.42;;;23.00;99.90;;;;;;5029988;28;20048;-69
2022/09/04 06:49:50;;;;;;;20.67;4.70;;;21.50;99.90;;;;;;5021572;28;20492;-69
2022/09/04 06:53:20;;;;;;;207.77;10.48;;;21.00;99.90;;;;;;5031187;28;20051;-68
2022/09/04 07:00:13;;;;;;;15.40;4.57;;;21.10;99.90;;;;;;5030949;28;20048;-68
2022/09/04 07:03:36;;;;;;;7.90;4.28;;;23.00;99.90;;;;;;5030730;28;20048;-69
2022/09/04 07:06:58;;;;;;;5.60;3.30;;;25.70;99.90;;;;;;5031089;28;20117;-67
2022/09/04 07:10:10;;;;;;;7.95;2.40;;;27.90;99.90;;;;;;5030775;28;20040;-68
2022/09/04 07:14:03;;;;;;;7.40;2.50;;;30.00;99.90;;;;;;5029541;28;20049;-68
2022/09/04 07:17:32;;;;;;;10.27;2.25;;;32.20;99.90;;;;;;5030349;28;20040;-68
2022/09/04 07:21:11;;;;;;;6.18;2.05;;;33.60;99.90;;;;;;5030599;28;20498;-67
2022/09/04 07:24:32;;;;;;;6.68;1.98;;;33.40;98.60;;;;;;5029857;28;20040;-68
2022/09/04 07:31:37;;;;;;;2.08;1.50;;;33.80;97.80;;;;;;5029955;28;20064;-68
2022/09/04 07:35:06;;;;;;;4.43;1.70;;;34.20;97.50;;;;;;5029683;28;20303;-68
2022/09/04 07:38:23;;;;;;;4.10;2.08;;;33.70;97.00;;;;;;5029920;28;20061;-68
2022/09/04 07:41:52;;;;;;;5.95;1.65;;;34.30;96.90;;;;;;5030796;28;20041;-68
2022/09/04 07:45:04;;;;;;;2.88;1.70;;;32.60;97.30;;;;;;5030020;28;20391;-68
2022/09/04 07:48:23;;;;;;;10.00;2.10;;;32.90;97.50;;;;;;5030159;28;20048;-68
2022/09/04 07:51:36;;;;;;;8.50;2.05;;;30.60;98.90;;;;;;5030156;28;20064;-68
2022/09/04 07:55:07;;;;;;;7.25;2.13;;;29.70;99.90;;;;;;5029366;28;20044;-68
2022/09/04 07:58:20;;;;;;;4.20;1.60;;;32.00;99.90;;;;;;5029855;28;20048;-68
2022/09/04 08:02:02;;;;;;;4.53;1.48;;;34.10;97.90;;;;;;5030438;28;20087;-68
2022/09/04 08:05:23;;;;;;;2.17;1.40;;;36.20;96.00;;;;;;5029308;28;20044;-68
2022/09/04 08:08:31;;;;;;;6.93;1.80;;;37.60;94.80;;;;;;5029547;28;20539;-68
2022/09/04 08:12:05;;;;;;;2.70;1.80;;;35.90;93.30;;;;;;5030096;28;20053;-67
2022/09/04 08:15:23;;;;;;;2.65;1.40;;;34.80;94.20;;;;;;5028711;28;20052;-68
2022/09/04 08:19:00;;;;;;;2.35;1.40;;;36.20;93.90;;;;;;5029485;28;20392;-67
2022/09/04 08:22:05;;;;;;;2.78;1.60;;;37.00;92.90;;;;;;5029706;28;20048;-67
2022/09/04 08:25:26;;;;;;;5.72;1.75;;;34.90;93.90;;;;;;5029278;28;20052;-67
2022/09/04 08:28:44;;;;;;;7.60;1.90;;;33.90;95.20;;;;;;5029628;28;20047;-67
2022/09/04 08:32:21;;;;;;;8.43;1.88;;;32.90;96.60;;;;;;5030247;28;20056;-67
2022/09/04 08:35:55;;;;;;;7.65;2.65;;;30.50;99.20;;;;;;5029001;28;20534;-68
2022/09/04 08:39:48;;;;;;;3.75;2.42;;;27.00;99.90;;;;;;5029400;28;20053;-68
2022/09/04 08:43:13;;;;;;;6.35;2.60;;;26.70;99.90;;;;;;5019205;28;20052;-67
2022/09/04 08:46:57;;;;;;;5.63;2.53;;;27.30;99.90;;;;;;5029286;28;20400;-67
2022/09/04 08:50:15;;;;;;;3.30;2.13;;;29.00;99.90;;;;;;5029914;28;20060;-67
2022/09/04 08:54:01;;;;;;;3.85;2.60;;;30.60;99.90;;;;;;5029490;28;20052;-67
2022/09/04 08:57:10;;;;;;;3.78;1.85;;;32.30;99.50;;;;;;5029306;28;20037;-67
2022/09/04 09:00:27;;;;;;;2.60;1.83;;;31.80;97.80;;;;;;5029264;28;20499;-67
2022/09/04 09:03:54;;;;;;;3.80;1.98;;;31.50;98.70;;;;;;5029335;28;20044;-67
2022/09/04 09:07:01;;;;;;;5.88;1.83;;;32.20;98.40;;;;;;5029283;28;20040;-66
2022/09/04 09:10:19;;;;;;;4.18;2.00;;;33.10;97.60;;;;;;5032724;28;20044;-68
2022/09/04 09:13:48;;;;;;;5.70;1.95;;;33.80;96.40;;;;;;5032018;28;20048;-67
2022/09/04 09:17:11;;;;;;;2.40;1.63;;;33.00;96.70;;;;;;5032500;28;20064;-67
2022/09/04 09:20:33;;;;;;;5.63;2.22;;;32.00;97.70;;;;;;5032914;28;20407;-68
2022/09/04 09:23:44;;;;;;;8.02;2.08;;;30.80;97.80;;;;;;5032501;28;20499;-68
2022/09/04 09:27:07;;;;;;;5.88;2.50;;;30.70;99.50;;;;;;5033045;28;20149;-67
2022/09/04 09:30:19;;;;;;;3.30;2.03;;;33.80;97.70;;;;;;5032771;28;20044;-67
2022/09/04 09:33:30;;;;;;;4.85;1.65;;;34.40;95.70;;;;;;5032549;28;20365;-68
2022/09/04 09:36:52;;;;;;;5.68;2.17;;;34.40;96.50;;;;;;5033065;28;20053;-67
2022/09/04 09:40:52;;;;;;;5.47;1.83;;;34.90;95.90;;;;;;5032864;28;20060;-67
2022/09/04 09:44:34;;;;;;;4.05;1.65;;;35.90;94.60;;;;;;5031590;28;20559;-67
2022/09/04 09:52:04;;;;;;;3.35;1.90;;;35.30;94.70;;;;;;5032580;28;20388;-67
2022/09/04 09:55:46;;;;;;;3.60;1.80;;;34.70;94.70;;;;;;5031744;28;20044;-68
2022/09/04 09:59:14;;;;;;;6.10;2.10;;;35.10;95.20;;;;;;5032397;28;20044;-67
2022/09/04 10:02:27;;;;;;;2.60;1.55;;;32.20;96.90;;;;;;5032553;28;20372;-67
2022/09/04 10:10:09;;;;;;;8.13;1.95;;;30.60;98.70;;;;;;5026696;28;20073;-66
2022/09/04 10:13:45;;;;;;;3.78;1.60;;;31.40;98.40;;;;;;5031392;28;20049;-68
2022/09/04 10:17:08;;;;;;;6.63;1.88;;;32.10;98.90;;;;;;5032207;28;20060;-67
2022/09/04 10:20:41;;;;;;;6.03;2.00;;;32.10;98.20;;;;;;5031666;28;20049;-67
2022/09/04 10:23:54;;;;;;;5.03;1.92;;;34.10;96.60;;;;;;5031712;28;20048;-67
2022/09/04 10:27:26;;;;;;;5.43;1.83;;;36.20;94.60;;;;;;5032329;28;20526;-67
2022/09/04 10:34:57;;;;;;;2.35;1.75;;;39.20;92.50;;;;;;5031201;28;20045;-67
2022/09/04 10:38:25;;;;;;;4.93;1.70;;;39.20;91.40;;;;;;5026643;28;20045;-68
2022/09/04 10:41:34;;;;;;;2.93;1.40;;;37.70;91.00;;;;;;5031458;28;20384;-67
2022/09/04 10:45:17;;;;;;;3.78;1.50;;;37.80;91.60;;;;;;5031092;28;20287;-67
2022/09/04 10:48:57;;;;;;;3.65;1.40;;;38.00;91.30;;;;;;5034196;28;20044;-67
2022/09/04 10:52:04;;;;;;;6.25;1.92;;;38.80;91.50;;;;;;5031317;28;20040;-67
2022/09/04 10:55:48;;;;;;;6.65;1.60;;;39.40;91.00;;;;;;5030153;28;20048;-67
2022/09/04 10:59:20;;;;;;;3.38;1.30;;;40.50;88.50;;;;;;5031408;28;20048;-67
2022/09/04 11:03:02;;;;;;;3.35;1.77;;;41.30;87.60;;;;;;5030998;28;20503;-67
2022/09/04 11:06:48;;;;;;;4.07;1.30;;;41.20;85.60;;;;;;5030531;28;20052;-67
2022/09/04 11:10:03;;;;;;;3.63;1.23;;;40.90;83.70;;;;;;5031286;28;20048;-67
2022/09/04 11:13:45;;;;;;;3.67;1.38;;;40.50;83.90;;;;;;5031104;28;20048;-67
2022/09/04 11:17:23;;;;;;;3.15;0.98;;;40.70;82.70;;;;;;5030430;28;20052;-67
2022/09/04 11:20:39;;;;;;;5.55;1.15;;;39.30;82.10;;;;;;5031183;28;20040;-67
2022/09/04 11:24:08;;;;;;;6.03;1.00;;;39.30;84.30;;;;;;5030339;28;20045;-67
2022/09/04 11:27:19;;;;;;;7.43;1.80;;;39.30;84.30;;;;;;5030782;28;20044;-67
2022/09/04 11:31:00;;;;;;;5.97;1.38;;;36.80;84.70;;;;;;5030364;28;20048;-67
2022/09/04 11:34:13;;;;;;;6.75;1.58;;;37.10;88.00;;;;;;5030529;28;20049;-67
2022/09/04 11:41:35;;;;;;;3.88;1.30;;;38.50;86.60;;;;;;5030617;28;20507;-67
2022/09/04 11:45:19;;;;;;;3.42;1.30;;;36.70;86.60;;;;;;5006542;28;20056;-67
2022/09/04 11:48:57;;;;;;;4.32;1.13;;;36.80;87.50;;;;;;5030461;28;20045;-67
2022/09/04 11:52:21;;;;;;;4.75;1.40;;;38.20;85.50;;;;;;5030986;28;20052;-67
2022/09/04 11:55:50;;;;;;;6.30;1.30;;;38.10;86.50;;;;;;5029937;28;20044;-68
2022/09/04 11:59:12;;;;;;;6.68;1.25;;;40.70;83.90;;;;;;5030058;28;20068;-68
2022/09/04 12:02:41;;;;;;;5.50;1.30;;;40.50;81.60;;;;;;5030130;28;20044;-67
2022/09/04 12:06:24;;;;;;;4.82;1.20;;;42.80;77.90;;;;;;5030134;28;20044;-67
2022/09/04 12:09:53;;;;;;;6.95;1.20;;;43.00;75.00;;;;;;5029035;28;20036;-68
2022/09/04 12:13:05;;;;;;;6.63;1.50;;;40.00;74.00;;;;;;5030256;28;20492;-67
2022/09/04 12:16:21;;;;;;;5.05;1.35;;;37.40;78.90;;;;;;5029911;28;20056;-68
2022/09/04 12:19:57;;;;;;;5.45;1.40;;;38.20;79.20;;;;;;5029809;28;20041;-67
2022/09/04 12:23:16;;;;;;;5.63;1.30;;;39.70;77.60;;;;;;5030003;28;20052;-67
2022/09/04 12:26:52;;;;;;;6.38;1.42;;;39.20;78.00;;;;;;5029798;28;20507;-67
2022/09/04 12:30:19;;;;;;;6.07;1.40;;;40.20;78.40;;;;;;5028937;28;20044;-67
2022/09/04 12:34:00;;;;;;;6.07;1.30;;;41.00;78.10;;;;;;5029489;28;20048;-66
2022/09/04 12:37:12;;;;;;;4.68;1.30;;;42.40;75.00;;;;;;5029977;28;20044;-67
2022/09/04 12:40:25;;;;;;;4.75;1.33;;;42.20;76.00;;;;;;5029469;28;20040;-67
2022/09/04 12:47:14;;;;;;;4.03;1.50;;;41.00;77.00;;;;;;5032608;28;20404;-67
2022/09/04 12:50:40;;;;;;;5.28;1.33;;;40.80;77.50;;;;;;5032556;28;20036;-67
2022/09/04 12:53:56;;;;;;;6.78;1.20;;;41.60;77.10;;;;;;5033317;28;20033;-67
2022/09/04 12:57:16;;;;;;;5.25;1.27;;;43.50;75.70;;;;;;5033694;28;20044;-67
2022/09/04 13:00:25;;;;;;;11.43;1.88;;;44.80;72.90;;;;;;5033639;28;20074;-67
2022/09/04 13:03:47;;;;;;;6.05;1.20;;;44.90;72.10;;;;;;5033320;28;20056;-67
2022/09/04 13:07:43;;;;;;;8.50;1.75;;;45.30;71.00;;;;;;5033123;28;20056;-68
2022/09/04 13:11:13;;;;;;;6.32;1.50;;;45.70;71.10;;;;;;5033010;28;20040;-69
2022/09/04 13:14:43;;;;;;;2.95;1.00;;;46.40;70.00;;;;;;5032123;28;20048;-69
2022/09/04 13:17:53;;;;;;;;;;;46.50;69.50;;;;;;5021469;28;20056;-66
2022/09/04 13:21:18;;;;;;;8.32;1.40;;;45.90;67.60;;;;;;5033222;28;19913;-68
2022/09/04 13:24:40;;;;;;;7.47;1.30;;;45.80;68.80;;;;;;5032329;28;20044;-68
2022/09/04 13:28:12;;;;;;;7.00;2.13;;;42.10;68.90;;;;;;5032428;28;20404;-68
2022/09/04 13:31:45;;;;;;;6.75;1.38;;;41.60;70.10;;;;;;5032515;28;20049;-67
2022/09/04 13:35:14;;;;;;;10.75;1.92;;;41.70;71.50;;;;;;5031934;28;20131;-68
2022/09/04 13:38:42;;;;;;;12.23;2.25;;;40.80;71.80;;;;;;5032646;28;20511;-67
2022/09/04 13:41:52;;;;;;;8.80;2.10;;;38.60;72.50;;;;;;5032881;28;20044;-67
2022/09/04 13:45:22;;;;;;;11.60;1.70;;;35.80;75.00;;;;;;5020332;28;20527;-66
2022/09/04 13:48:51;;;;;;;9.93;2.35;;;34.20;77.70;;;;;;5032745;28;20040;-67
2022/09/04 13:52:06;;;;;;;10.20;2.35;;;33.90;80.30;;;;;;5032030;28;20040;-67
2022/09/04 13:55:20;;;;;;;9.13;2.55;;;34.30;79.80;;;;;;5030732;28;20036;-67
2022/09/04 13:58:32;;;;;;;7.70;2.28;;;35.30;79.00;;;;;;5031218;28;20048;-68
2022/09/04 14:02:00;;;;;;;7.03;2.00;;;35.20;80.40;;;;;;5020105;28;20040;-67
2022/09/04 14:09:02;;;;;;;6.68;1.92;;;35.50;78.10;;;;;;5031965;28;20041;-67
2022/09/04 14:12:44;;;;;;;8.38;1.95;;;36.00;79.40;;;;;;5032212;28;20039;-68
2022/09/04 14:15:47;;;;;;;;;;;34.70;81.50;;;;;;5032196;28;20314;-66
2022/09/04 14:19:16;;;;;;;9.32;2.30;;;34.00;82.80;;;;;;5031407;28;19909;-67
2022/09/04 14:22:45;;;;;;;9.85;2.00;;;34.40;84.50;;;;;;5031984;28;20044;-68
2022/09/04 14:26:23;;;;;;;16.92;2.20;;;35.00;84.50;;;;;;5031576;28;20053;-67
2022/09/04 14:30:04;;;;;;;6.32;1.85;;;35.50;82.80;;;;;;5031549;28;20032;-67
2022/09/04 14:33:21;;;;;;;6.15;2.10;;;35.80;81.00;;;;;;5032049;28;20373;-67
2022/09/04 14:37:14;;;;;;;6.80;2.08;;;36.00;80.90;;;;;;5031088;28;20053;-66
2022/09/04 14:40:32;;;;;;;6.72;2.03;;;35.50;80.90;;;;;;5031140;28;20040;-67
2022/09/04 14:43:45;;;;;;;7.28;2.25;;;35.40;80.70;;;;;;5031065;28;20047;-68
2022/09/04 14:47:12;;;;;;;10.02;3.08;;;34.20;84.00;;;;;;5031194;28;20395;-67
2022/09/04 14:50:17;;;;;;;5.60;2.13;;;32.80;86.20;;;;;;5032144;28;20037;-68
2022/09/04 14:53:30;;;;;;;7.80;2.00;;;31.70;84.80;;;;;;5031113;28;20391;-68
2022/09/04 14:57:18;;;;;;;4.72;2.00;;;32.10;84.30;;;;;;5031108;28;20052;-68
2022/09/04 15:00:23;;;;;;;10.50;2.47;;;32.90;84.80;;;;;;5030991;28;20520;-68
2022/09/04 15:03:54;;;;;;;7.72;2.38;;;32.90;83.80;;;;;;5030055;28;20044;-68
2022/09/04 15:07:19;;;;;;;6.07;1.90;;;31.80;86.20;;;;;;5020142;28;20060;-68
2022/09/04 15:10:49;;;;;;;15.73;3.33;;;31.70;87.30;;;;;;5030826;28;20068;-68
2022/09/04 15:14:03;;;;;;;5.95;1.92;;;31.10;87.90;;;;;;5030465;28;20040;-68
2022/09/04 15:17:27;;;;;;;6.85;2.20;;;31.40;87.80;;;;;;5030903;28;20056;-68
2022/09/04 15:20:35;;;;;;;10.13;2.65;;;30.80;89.70;;;;;;5030914;28;20068;-68
2022/09/04 15:23:58;;;;;;;7.35;2.38;;;30.00;90.20;;;;;;5030090;28;20043;-67
2022/09/04 15:27:27;;;;;;;6.55;2.20;;;29.90;90.90;;;;;;5030503;28;20052;-67
2022/09/04 15:34:37;;;;;;;8.38;2.35;;;30.70;89.90;;;;;;5029528;28;20044;-66
2022/09/04 15:37:46;;;;;;;9.48;1.98;;;31.00;89.90;;;;;;5030737;28;20049;-68
2022/09/04 15:41:18;;;;;;;7.85;2.28;;;30.50;90.40;;;;;;5030464;28;20511;-67
2022/09/04 15:44:34;;;;;;;5.97;2.00;;;30.40;90.50;;;;;;5030307;28;20052;-67
2022/09/04 15:51:27;;;;;;;11.68;2.47;;;30.40;91.20;;;;;;5030303;28;20050;-67
2022/09/04 15:55:11;;;;;;;4.95;1.88;;;30.50;91.30;;;;;;5029648;28;20052;-68
2022/09/04 15:58:41;;;;;;;6.97;2.67;;;30.40;91.60;;;;;;5029968;28;20037;-67
2022/09/04 16:02:10;;;;;;;8.47;2.07;;;30.30;92.00;;;;;;5029337;28;20044;-67
2022/09/04 16:05:40;;;;;;;5.50;1.70;;;30.30;92.00;;;;;;5029769;28;20283;-68
2022/09/04 16:08:55;;;;;;;6.85;2.25;;;30.30;92.40;;;;;;5029808;28;20040;-67
2022/09/04 16:12:22;;;;;;;8.02;2.40;;;30.20;92.10;;;;;;5030273;28;20041;-67
2022/09/04 16:15:45;;;;;;;8.60;2.40;;;30.20;91.80;;;;;;5029605;28;20053;-67
2022/09/04 16:19:19;;;;;;;10.00;2.25;;;30.20;92.00;;;;;;5033968;28;20223;-67
2022/09/04 16:22:46;;;;;;;7.00;2.08;;;30.20;92.10;;;;;;5033318;28;20078;-68
2022/09/04 16:25:53;;;;;;;6.03;2.15;;;30.10;92.80;;;;;;5034372;28;20048;-68
2022/09/04 16:29:07;;;;;;;7.60;2.35;;;30.10;92.40;;;;;;5033677;28;20048;-67
2022/09/04 16:32:34;;;;;;;10.45;2.45;;;29.90;92.30;;;;;;5033947;28;20041;-67
2022/09/04 16:35:41;;;;;;;7.75;2.47;;;29.80;92.00;;;;;;5033578;28;20036;-66
2022/09/04 16:39:19;;;;;;;7.78;2.30;;;29.60;92.50;;;;;;5033398;28;20032;-67
2022/09/04 16:42:46;;;;;;;7.80;2.17;;;29.70;92.60;;;;;;5034134;28;20048;-67
2022/09/04 16:45:57;;;;;;;6.57;2.45;;;29.60;92.60;;;;;;5033340;28;20048;-68
2022/09/04 16:49:14;;;;;;;;;;;29.60;92.50;;;;;;5034308;28;20044;-68
2022/09/04 16:52:34;;;;;;;11.35;2.78;;;29.60;92.70;;;;;;5033700;28;19913;-67
2022/09/04 16:56:06;;;;;;;8.85;2.80;;;29.50;92.70;;;;;;5033106;28;20037;-67
2022/09/04 16:59:23;;;;;;;6.82;2.10;;;29.40;92.80;;;;;;5033439;28;20396;-67
2022/09/04 17:03:12;;;;;;;8.27;2.60;;;29.30;92.80;;;;;;5034080;28;20384;-69
2022/09/04 17:07:03;;;;;;;10.10;2.80;;;29.20;92.80;;;;;;5020736;28;20048;-69
2022/09/04 17:10:31;;;;;;;6.10;2.22;;;29.00;93.20;;;;;;5033375;28;20036;-68
2022/09/04 17:13:47;;;;;;;11.77;2.55;;;28.80;93.40;;;;;;5032853;28;20040;-69
2022/09/04 17:17:02;;;;;;;6.95;2.50;;;28.50;94.00;;;;;;5032835;28;20117;-69
2022/09/04 17:20:17;;;;;;;9.02;2.25;;;28.30;94.30;;;;;;5033235;28;20048;-69
2022/09/04 17:23:59;;;;;;;7.80;2.50;;;28.10;94.80;;;;;;5032613;28;20420;-69
2022/09/04 17:27:35;;;;;;;9.23;2.20;;;27.80;95.40;;;;;;5032666;28;20535;-69
2022/09/04 17:31:07;;;;;;;6.93;1.92;;;27.60;95.90;;;;;;5032570;28;20491;-69
2022/09/04 17:34:24;;;;;;;9.32;2.35;;;27.40;96.60;;;;;;5032656;28;20044;-68
2022/09/04 17:37:50;;;;;;;11.25;2.85;;;27.30;97.20;;;;;;5032939;28;20400;-69
2022/09/04 17:41:23;;;;;;;6.72;2.78;;;27.00;97.40;;;;;;5032903;28;20103;-69
2022/09/04 17:44:53;;;;;;;11.88;2.83;;;26.80;97.70;;;;;;5032003;28;20045;-69
2022/09/04 17:48:10;;;;;;;9.20;2.78;;;26.60;98.00;;;;;;5032370;28;20068;-69
2022/09/04 17:54:44;;;;;;;12.65;3.10;;;26.30;98.70;;;;;;5031934;28;20040;-69
2022/09/04 17:58:11;;;;;;;12.77;3.45;;;26.10;99.40;;;;;;5032449;28;20048;-69
2022/09/04 18:01:37;;;;;;;8.30;3.45;;;26.00;99.50;;;;;;5032517;28;20048;-69
2022/09/04 18:08:33;;;;;;;7.90;3.47;;;25.70;99.90;;;;;;5031964;28;20424;-69
2022/09/04 18:11:46;;;;;;;9.32;3.38;;;25.50;99.90;;;;;;5032061;28;20048;-69
2022/09/04 18:15:13;;;;;;;19.15;4.00;;;25.20;99.90;;;;;;5031894;28;20049;-69
2022/09/04 18:18:51;;;;;;;12.38;2.97;;;25.00;99.90;;;;;;5031987;28;20053;-70
2022/09/04 18:21:59;;;;;;;7.20;2.63;;;24.80;99.90;;;;;;5032543;28;20037;-70
2022/09/04 18:25:12;;;;;;;7.90;2.90;;;24.80;99.90;;;;;;5031414;28;20032;-69
2022/09/04 18:28:37;;;;;;;7.82;2.78;;;24.70;99.90;;;;;;5031509;28;20052;-69
2022/09/04 18:32:22;;;;;;;8.10;2.83;;;24.60;99.90;;;;;;5031582;28;20045;-69
2022/09/04 18:35:50;;;;;;;5.57;2.40;;;24.50;99.90;;;;;;5031044;28;20044;-69
2022/09/04 18:39:04;;;;;;;12.70;2.70;;;24.40;99.90;;;;;;5031617;28;20032;-69
2022/09/04 18:42:20;;;;;;;7.22;2.80;;;24.30;99.90;;;;;;5031490;28;20507;-69
2022/09/04 18:45:40;;;;;;;7.18;2.50;;;24.30;99.90;;;;;;5031086;28;20511;-69
2022/09/04 18:48:46;;;;;;;10.60;3.03;;;24.30;99.90;;;;;;5031375;28;20421;-69
2022/09/04 18:51:56;;;;;;;9.82;2.90;;;24.40;99.90;;;;;;5031372;28;20045;-69